Time;durP1;ratioP1;P1;durP2;ratioP2;P2;SDS_P1;SDS_P2;PMS_P1;PMS_P2;Temp;Humidity;BMP_temperature;BMP_pressure;BME280_temperature;BME280_humidity;BME280_pressure;Samples;Min_cycle;Max_cycle;Signal;HPM_P1;HPM_P2
2023/10/04 00:00:29;;;;;;;0.45;0.45;;;;;;;12.18;100.00;97013.00;1020963;28;20027;-76
2023/10/04 00:00:59;;;;;;;0.00;0.00;;;;;;;12.18;100.00;97008.53;1026693;28;20039;-75
2023/10/04 00:01:30;;;;;;;0.10;0.10;;;;;;;12.09;100.00;96994.19;1026535;28;20547;-75
2023/10/04 00:02:00;;;;;;;0.00;0.00;;;;;;;12.17;100.00;97008.75;1026537;28;20408;-75
2023/10/04 00:02:31;;;;;;;0.43;0.43;;;;;;;12.13;100.00;97000.56;1018565;29;20130;-76
2023/10/04 00:03:01;;;;;;;1.85;0.30;;;;;;;12.15;100.00;97005.59;1018323;29;20035;-75
2023/10/04 00:03:32;;;;;;;1.00;0.40;;;;;;;12.13;100.00;97015.56;1014988;29;20652;-75
2023/10/04 00:04:03;;;;;;;0.00;0.00;;;;;;;12.12;100.00;97009.50;1014850;29;20036;-74
2023/10/04 00:04:34;;;;;;;2.15;0.10;;;;;;;12.12;100.00;97008.69;1018453;29;20035;-76
2023/10/04 00:05:04;;;;;;;0.10;0.10;;;;;;;12.12;100.00;97009.50;1024532;28;20026;-76
2023/10/04 00:05:36;;;;;;;0.00;0.00;;;;;;;12.07;100.00;97009.41;1026692;28;20034;-78
2023/10/04 00:06:08;;;;;;;0.10;0.10;;;;;;;12.07;100.00;97012.03;1025913;28;20530;-76
2023/10/04 00:06:41;;;;;;;0.60;0.43;;;;;;;12.06;100.00;97010.44;1030677;28;20034;-75
2023/10/04 00:07:11;;;;;;;0.00;0.00;;;;;;;12.06;100.00;97014.91;1034170;28;20156;-76
2023/10/04 00:07:43;;;;;;;0.25;0.22;;;;;;;11.96;100.00;97007.66;1033035;28;20562;-75
2023/10/04 00:08:14;;;;;;;0.17;0.17;;;;;;;12.03;100.00;97021.44;1034393;28;20026;-75
2023/10/04 00:08:44;;;;;;;0.00;0.00;;;;;;;12.01;100.00;97016.44;1034593;28;20055;-75
2023/10/04 00:09:15;;;;;;;0.15;0.15;;;;;;;11.98;100.00;97009.03;1026359;28;20034;-74
2023/10/04 00:09:45;;;;;;;0.00;0.00;;;;;;;11.99;100.00;97015.09;1022563;29;20423;-76
2023/10/04 00:10:16;;;;;;;0.00;0.00;;;;;;;12.00;100.00;97020.13;1022397;28;20027;-74
2023/10/04 00:10:49;;;;;;;0.25;0.25;;;;;;;11.99;100.00;97010.63;1014793;29;20517;-76
2023/10/04 00:11:20;;;;;;;0.60;0.60;;;;;;;12.03;100.00;97019.63;1018479;29;20032;-76
2023/10/04 00:11:51;;;;;;;0.47;0.17;;;;;;;12.02;100.00;97023.28;1021452;28;20042;-73
2023/10/04 00:12:21;;;;;;;0.25;0.25;;;;;;;12.03;100.00;97016.97;1031926;28;20037;-74
2023/10/04 00:12:52;;;;;;;0.43;0.43;;;;;;;12.01;100.00;97011.19;1038025;28;20030;-76
2023/10/04 00:13:23;;;;;;;0.35;0.35;;;;;;;12.05;100.00;97015.97;1026397;28;20038;-74
2023/10/04 00:13:53;;;;;;;0.00;0.00;;;;;;;12.01;100.00;97008.56;1026542;28;20026;-75
2023/10/04 00:14:24;;;;;;;0.20;0.10;;;;;;;12.05;100.00;97015.97;1022706;28;20032;-76
2023/10/04 00:14:54;;;;;;;0.13;0.13;;;;;;;12.07;100.00;97019.13;1022169;28;20035;-75
2023/10/04 00:15:29;;;;;;;0.13;0.10;;;;;;;12.03;100.00;97011.72;1026322;28;20399;-76
2023/10/04 00:16:00;;;;;;;0.03;0.03;;;;;;;12.01;100.00;97007.75;1023242;28;20112;-76
2023/10/04 00:16:34;;;;;;;0.15;0.00;;;;;;;12.07;100.00;97016.50;1022543;29;20110;-75
2023/10/04 00:17:04;;;;;;;0.08;0.08;;;;;;;12.08;100.00;97005.75;1019383;29;20024;-76
2023/10/04 00:17:36;;;;;;;0.00;0.00;;;;;;;12.09;100.00;97014.44;1022511;29;20499;-75
2023/10/04 00:18:06;;;;;;;0.30;0.08;;;;;;;12.08;100.00;97008.38;1023181;28;20487;-74
2023/10/04 00:18:38;;;;;;;0.00;0.00;;;;;;;12.09;100.00;97009.19;1022691;28;20046;-76
2023/10/04 00:19:09;;;;;;;0.20;0.20;;;;;;;12.06;100.00;97007.03;1026814;28;20066;-76
2023/10/04 00:19:40;;;;;;;0.25;0.17;;;;;;;12.08;100.00;97007.59;1026445;28;20034;-77
2023/10/04 00:20:13;;;;;;;0.05;0.05;;;;;;;12.08;100.00;97004.97;1025054;28;20023;-75
2023/10/04 00:20:43;;;;;;;0.22;0.17;;;;;;;11.93;100.00;96985.25;1022465;29;20032;-75
2023/10/04 00:21:14;;;;;;;0.20;0.20;;;;;;;12.06;100.00;97012.28;1022643;29;20031;-77
2023/10/04 00:21:44;;;;;;;1.85;0.43;;;;;;;12.07;100.00;97014.66;1022289;28;20515;-74
2023/10/04 00:22:18;;;;;;;0.35;0.35;;;;;;;12.02;100.00;97004.88;1023255;28;20043;-75
2023/10/04 00:22:49;;;;;;;0.00;0.00;;;;;;;12.05;100.00;97008.06;1026635;28;20019;-74
2023/10/04 00:23:19;;;;;;;0.10;0.10;;;;;;;12.10;100.00;97008.13;1022970;28;20023;-75
2023/10/04 00:23:50;;;;;;;0.13;0.13;;;;;;;12.11;100.00;97010.53;1022098;29;20513;-76
2023/10/04 00:24:20;;;;;;;0.32;0.32;;;;;;;12.11;100.00;97012.38;1022979;28;20037;-76
2023/10/04 00:24:51;;;;;;;0.10;0.00;;;;;;;12.13;100.00;97011.06;1021977;28;20035;-76
2023/10/04 00:25:23;;;;;;;0.00;0.00;;;;;;;12.13;100.00;97015.56;1024402;28;20061;-76
2023/10/04 00:25:53;;;;;;;2.72;0.20;;;;;;;12.17;100.00;97006.13;1014372;29;20028;-74
2023/10/04 00:26:24;;;;;;;0.55;0.55;;;;;;;12.18;100.00;97005.91;1018541;29;20031;-76
2023/10/04 00:26:54;;;;;;;0.00;0.00;;;;;;;12.16;100.00;97007.19;1019359;28;20094;-75
2023/10/04 00:27:25;;;;;;;0.55;0.20;;;;;;;12.23;100.00;97018.34;1018507;29;20031;-76
2023/10/04 00:27:58;;;;;;;1.55;0.10;;;;;;;12.19;100.00;97004.06;1022674;28;20019;-75
2023/10/04 00:28:29;;;;;;;0.95;0.65;;;;;;;12.24;100.00;97012.84;1026682;28;20026;-76
2023/10/04 00:29:00;;;;;;;0.05;0.05;;;;;;;12.25;100.00;97008.38;1023733;28;20031;-76
2023/10/04 00:29:30;;;;;;;0.10;0.10;;;;;;;12.28;100.00;97010.53;1026524;28;20035;-76
2023/10/04 00:30:01;;;;;;;0.00;0.00;;;;;;;12.28;100.00;97015.78;1026536;28;20019;-75
2023/10/04 00:30:32;;;;;;;1.88;0.43;;;;;;;12.29;100.00;97006.84;1021055;28;20024;-76
2023/10/04 00:31:02;;;;;;;0.08;0.08;;;;;;;12.30;100.00;97012.91;1023179;28;20027;-76
2023/10/04 00:31:33;;;;;;;0.08;0.08;;;;;;;12.31;100.00;97010.03;1023402;29;20051;-76
2023/10/04 00:32:03;;;;;;;0.15;0.15;;;;;;;12.31;100.00;97009.22;1023235;28;20031;-76
2023/10/04 00:32:36;;;;;;;0.10;0.10;;;;;;;12.29;100.00;97003.41;1027370;28;20383;-76
2023/10/04 00:33:10;;;;;;;0.30;0.30;;;;;;;12.29;100.00;97009.47;1027757;28;20019;-76
2023/10/04 00:33:40;;;;;;;0.03;0.03;;;;;;;12.29;100.00;97003.41;1031484;28;20023;-76
2023/10/04 00:34:11;;;;;;;1.00;0.70;;;;;;;12.28;100.00;96997.38;1031804;28;20030;-76
2023/10/04 00:34:41;;;;;;;0.60;0.25;;;;;;;12.25;100.00;96998.63;1034122;28;20034;-75
2023/10/04 00:35:15;;;;;;;0.52;0.43;;;;;;;12.25;100.00;97003.09;1023596;28;20038;-76
2023/10/04 00:35:46;;;;;;;0.20;0.20;;;;;;;12.22;100.00;96998.31;1027300;28;20113;-76
2023/10/04 00:36:21;;;;;;;0.05;0.03;;;;;;;12.21;100.00;97002.00;1027208;28;20038;-76
2023/10/04 00:36:52;;;;;;;0.00;0.00;;;;;;;12.18;100.00;97007.75;1024566;28;20035;-75
2023/10/04 00:37:24;;;;;;;0.30;0.30;;;;;;;12.15;100.00;97003.75;1027452;28;20027;-76
2023/10/04 00:37:57;;;;;;;0.20;0.00;;;;;;;12.15;100.00;97000.34;1024928;28;20034;-76
2023/10/04 00:38:28;;;;;;;0.00;0.00;;;;;;;12.15;100.00;97003.75;1023718;28;20489;-76
2023/10/04 00:38:59;;;;;;;0.00;0.00;;;;;;;12.12;100.00;97003.44;1027435;28;20025;-75
2023/10/04 00:39:29;;;;;;;0.95;0.50;;;;;;;12.11;100.00;97002.66;1025433;28;20031;-76
2023/10/04 00:40:00;;;;;;;0.00;0.00;;;;;;;12.11;100.00;97005.28;1027342;28;20826;-76
2023/10/04 00:40:31;;;;;;;0.00;0.00;;;;;;;12.05;100.00;96997.56;1023326;29;20033;-76
2023/10/04 00:41:02;;;;;;;0.73;0.35;;;;;;;12.06;100.00;97004.41;1019193;29;20055;-76
2023/10/04 00:41:33;;;;;;;0.10;0.10;;;;;;;12.02;100.00;97004.88;1027335;28;20027;-75
2023/10/04 00:42:03;;;;;;;0.00;0.00;;;;;;;12.05;100.00;97008.88;1022243;28;20028;-75
2023/10/04 00:42:35;;;;;;;0.40;0.40;;;;;;;12.01;100.00;97005.91;1019159;29;20535;-77
2023/10/04 00:43:07;;;;;;;0.00;0.00;;;;;;;12.03;100.00;97003.03;1020280;29;20020;-75
2023/10/04 00:43:51;;;;;;;0.00;0.00;;;;;;;12.01;100.00;97000.66;1023586;28;20491;-75
2023/10/04 00:44:21;;;;;;;0.03;0.03;;;;;;;11.98;100.00;96997.72;1024169;28;20652;-75
2023/10/04 00:44:52;;;;;;;0.50;0.50;;;;;;;11.98;100.00;96998.50;1028629;28;20031;-75
2023/10/04 00:45:24;;;;;;;0.70;0.70;;;;;;;11.98;100.00;97003.75;1028084;28;20027;-76
2023/10/04 00:45:54;;;;;;;0.32;0.32;;;;;;;11.93;100.00;96990.53;1025372;28;20158;-74
2023/10/04 00:46:25;;;;;;;0.75;0.15;;;;;;;11.97;100.00;96996.91;1022050;29;20502;-75
2023/10/04 00:46:56;;;;;;;5.88;2.28;;;;;;;11.95;100.00;96992.94;1026949;28;20041;-74
2023/10/04 00:47:26;;;;;;;0.15;0.15;;;;;;;11.91;100.00;96987.34;1027319;28;20015;-74
2023/10/04 00:47:57;;;;;;;0.10;0.10;;;;;;;11.89;100.00;96994.69;1023082;28;20027;-75
2023/10/04 00:48:34;;;;;;;0.50;0.50;;;;;;;11.84;100.00;96980.59;1023284;29;20054;-74
2023/10/04 00:49:06;;;;;;;0.20;0.13;;;;;;;11.85;100.00;96993.56;1018966;29;20037;-75
2023/10/04 00:49:37;;;;;;;0.47;0.47;;;;;;;11.80;100.00;96985.56;1023008;29;20011;-75
2023/10/04 00:50:15;;;;;;;0.57;0.38;;;;;;;11.82;100.00;96983.50;1019341;29;20110;-76
2023/10/04 00:50:47;;;;;;;5.28;2.05;;;;;;;11.74;100.00;96992.59;1019189;29;20114;-73
2023/10/04 00:51:22;;;;;;;0.00;0.00;;;;;;;11.70;100.00;96985.38;1025805;28;20019;-75
2023/10/04 00:51:52;;;;;;;0.35;0.30;;;;;;;11.68;100.00;96987.47;1023229;29;20055;-75
2023/10/04 00:52:23;;;;;;;0.00;0.00;;;;;;;11.63;100.00;96984.75;1019250;29;20056;-76
2023/10/04 00:53:07;;;;;;;0.20;0.20;;;;;;;11.66;100.00;96989.53;1019958;29;20402;-75
2023/10/04 00:53:38;;;;;;;0.10;0.10;;;;;;;11.58;100.00;96993.38;1024320;28;20091;-75
2023/10/04 00:54:12;;;;;;;0.10;0.10;;;;;;;11.61;100.00;96999.97;1027366;28;20031;-74
2023/10/04 00:54:43;;;;;;;0.00;0.00;;;;;;;11.51;100.00;96993.50;1024180;28;20061;-74
2023/10/04 00:55:17;;;;;;;0.40;0.40;;;;;;;11.47;100.00;96992.41;1027115;28;20058;-76
2023/10/04 00:55:49;;;;;;;0.80;0.17;;;;;;;11.50;100.00;96996.38;1019433;29;20534;-75
2023/10/04 00:56:20;;;;;;;0.88;0.40;;;;;;;11.41;100.00;96990.72;1019206;29;20024;-74
2023/10/04 00:56:52;;;;;;;0.10;0.10;;;;;;;11.41;100.00;96997.81;1019329;29;20111;-74
2023/10/04 00:57:22;;;;;;;0.00;0.00;;;;;;;11.38;100.00;96991.19;1011476;29;20080;-75
2023/10/04 00:57:54;;;;;;;0.00;0.00;;;;;;;11.40;100.00;97006.69;1019298;29;20075;-76
2023/10/04 00:58:24;;;;;;;0.25;0.25;;;;;;;11.38;100.00;97003.53;1027233;28;20476;-76
2023/10/04 00:58:55;;;;;;;0.08;0.05;;;;;;;11.35;100.00;97007.41;1027120;28;20050;-74
2023/10/04 00:59:25;;;;;;;0.10;0.10;;;;;;;11.30;100.00;97002.88;1023117;29;20023;-75
2023/10/04 00:59:56;;;;;;;0.40;0.40;;;;;;;11.28;100.00;97001.50;1023301;28;20011;-75
2023/10/04 01:00:26;;;;;;;0.25;0.25;;;;;;;11.19;100.00;97001.09;1023398;28;20034;-76
2023/10/04 01:00:57;;;;;;;0.10;0.10;;;;;;;11.22;100.00;97007.69;1027435;28;20049;-76
2023/10/04 01:01:27;;;;;;;0.40;0.17;;;;;;;11.20;100.00;97012.38;1026878;28;20503;-76
2023/10/04 01:01:58;;;;;;;0.28;0.28;;;;;;;11.14;100.00;97011.50;1023181;29;20082;-75
2023/10/04 01:02:29;;;;;;;0.47;0.47;;;;;;;11.16;100.00;97013.88;1027244;28;20106;-76
2023/10/04 01:02:59;;;;;;;0.00;0.00;;;;;;;11.17;100.00;97007.63;1027132;28;20023;-74
2023/10/04 01:03:34;;;;;;;0.10;0.10;;;;;;;11.14;100.00;97005.47;1018979;29;20035;-75
2023/10/04 01:04:05;;;;;;;0.43;0.20;;;;;;;11.15;100.00;97014.94;1014957;29;20107;-76
2023/10/04 01:04:35;;;;;;;0.22;0.20;;;;;;;11.17;100.00;97012.88;1019254;29;20264;-75
2023/10/04 01:05:07;;;;;;;0.45;0.45;;;;;;;11.15;100.00;97009.69;1017674;29;20028;-75
2023/10/04 01:05:39;;;;;;;1.00;0.22;;;;;;;11.13;100.00;97004.63;1023398;28;20026;-75
2023/10/04 01:06:09;;;;;;;0.38;0.38;;;;;;;11.14;100.00;97002.84;1023580;28;20027;-76
2023/10/04 01:06:40;;;;;;;0.00;0.00;;;;;;;10.95;100.00;96978.56;1025374;28;20261;-76
2023/10/04 01:07:11;;;;;;;0.20;0.20;;;;;;;11.11;100.00;97013.81;1019165;29;20028;-76
2023/10/04 01:07:42;;;;;;;0.00;0.00;;;;;;;11.06;100.00;97007.41;1019272;29;20019;-75
2023/10/04 01:08:16;;;;;;;0.30;0.30;;;;;;;10.95;100.00;97004.84;1016795;29;20040;-75
2023/10/04 01:08:47;;;;;;;0.00;0.00;;;;;;;10.99;100.00;97003.31;1027197;28;20575;-76
2023/10/04 01:09:20;;;;;;;0.35;0.35;;;;;;;10.93;100.00;97002.44;1027200;28;20771;-74
2023/10/04 01:09:51;;;;;;;0.10;0.10;;;;;;;10.94;100.00;97011.13;1022859;29;20340;-74
2023/10/04 01:10:26;;;;;;;0.65;0.65;;;;;;;10.91;100.00;97004.50;1023589;28;20266;-76
2023/10/04 01:10:57;;;;;;;0.17;0.17;;;;;;;10.88;100.00;97015.47;1027159;28;20595;-76
2023/10/04 01:11:37;;;;;;;0.00;0.00;;;;;;;10.86;100.00;97007.00;1025191;28;20275;-75
2023/10/04 01:12:08;;;;;;;0.05;0.05;;;;;;;10.83;100.00;97002.22;1027249;28;20033;-75
2023/10/04 01:12:40;;;;;;;0.10;0.10;;;;;;;10.74;100.00;96998.38;1023113;29;20872;-78
2023/10/04 01:13:11;;;;;;;0.17;0.17;;;;;;;10.76;100.00;97007.59;1016905;29;20044;-76
2023/10/04 01:13:42;;;;;;;0.80;0.52;;;;;;;10.66;100.00;96996.91;1016066;29;20298;-75
2023/10/04 01:14:25;;;;;;;0.13;0.13;;;;;;;10.69;100.00;97000.91;1016113;29;20295;-76
2023/10/04 01:15:03;;;;;;;0.05;0.05;;;;;;;10.67;100.00;97009.00;1022633;28;20030;-74
2023/10/04 01:15:36;;;;;;;0.77;0.43;;;;;;;10.64;100.00;97014.72;1030092;28;21166;-75
2023/10/04 01:16:09;;;;;;;0.50;0.50;;;;;;;10.61;100.00;97008.09;1026127;28;20266;-75
2023/10/04 01:16:41;;;;;;;0.65;0.65;;;;;;;10.62;100.00;97007.06;1018966;29;20263;-75
2023/10/04 01:17:12;;;;;;;3.83;0.50;;;;;;;10.56;100.00;97005.38;1015336;29;20315;-75
2023/10/04 01:17:43;;;;;;;0.30;0.30;;;;;;;10.56;100.00;97013.25;1015313;29;20307;-76
2023/10/04 01:18:15;;;;;;;0.50;0.20;;;;;;;10.57;100.00;97011.44;1022913;29;20341;-76
2023/10/04 01:18:46;;;;;;;1.20;0.88;;;;;;;10.59;100.00;97011.97;1024056;28;20154;-75
2023/10/04 01:19:16;;;;;;;0.00;0.00;;;;;;;10.56;100.00;97008.00;1028005;28;20266;-75
2023/10/04 01:19:47;;;;;;;0.10;0.10;;;;;;;10.52;100.00;97013.94;1035558;28;20034;-76
2023/10/04 01:20:22;;;;;;;0.00;0.00;;;;;;;10.51;100.00;97013.13;1036919;28;20037;-75
2023/10/04 01:20:52;;;;;;;0.30;0.20;;;;;;;10.45;100.00;97006.19;1031234;28;20030;-76
2023/10/04 01:21:23;;;;;;;2.10;0.60;;;;;;;10.46;100.00;97012.22;1019270;29;20670;-77
2023/10/04 01:21:53;;;;;;;0.00;0.00;;;;;;;10.46;100.00;97010.41;1020429;28;20032;-76
2023/10/04 01:22:24;;;;;;;0.00;0.00;;;;;;;10.39;100.00;97007.09;1023635;28;20417;-76
2023/10/04 01:23:01;;;;;;;0.40;0.40;;;;;;;10.43;100.00;97021.38;1028084;28;20030;-76
2023/10/04 01:23:31;;;;;;;1.20;0.75;;;;;;;10.39;100.00;97017.59;1030218;28;20276;-77
2023/10/04 01:24:08;;;;;;;0.10;0.10;;;;;;;10.33;100.00;97008.03;1019183;29;20310;-75
2023/10/04 01:24:41;;;;;;;0.00;0.00;;;;;;;10.33;100.00;97011.44;1022564;29;20866;-75
2023/10/04 01:25:12;;;;;;;0.90;0.45;;;;;;;10.33;100.00;97008.81;1022903;29;20325;-75
2023/10/04 01:25:43;;;;;;;0.00;0.00;;;;;;;10.29;100.00;97004.25;1025932;28;20267;-75
2023/10/04 01:26:25;;;;;;;0.22;0.22;;;;;;;10.27;100.00;97011.56;1018826;29;20034;-75
2023/10/04 01:26:56;;;;;;;0.95;0.03;;;;;;;10.28;100.00;97015.78;1022325;29;20370;-73
2023/10/04 01:27:27;;;;;;;0.03;0.03;;;;;;;10.15;100.00;96996.59;1019270;29;20267;-77
2023/10/04 01:27:59;;;;;;;0.00;0.00;;;;;;;10.15;100.00;96999.19;1022585;28;20274;-75
2023/10/04 01:28:30;;;;;;;1.02;0.40;;;;;;;10.25;100.00;97010.97;1023711;28;20023;-75
2023/10/04 01:29:04;;;;;;;1.35;0.28;;;;;;;10.26;100.00;97009.94;1022959;28;20277;-76
2023/10/04 01:29:38;;;;;;;0.10;0.10;;;;;;;10.24;100.00;97009.38;1023327;29;20267;-75
2023/10/04 01:30:13;;;;;;;0.22;0.22;;;;;;;10.24;100.00;97004.91;1023079;29;20306;-75
2023/10/04 01:30:48;;;;;;;0.10;0.10;;;;;;;10.27;100.00;97008.94;1024596;28;20303;-76
2023/10/04 01:31:19;;;;;;;0.35;0.35;;;;;;;10.28;100.00;97007.91;1027730;28;20274;-75
2023/10/04 01:31:49;;;;;;;0.00;0.00;;;;;;;10.26;100.00;97005.53;1031183;28;21003;-75
2023/10/04 01:32:22;;;;;;;0.00;0.00;;;;;;;10.25;100.00;97003.88;1027886;28;20023;-76
2023/10/04 01:32:53;;;;;;;0.00;0.00;;;;;;;10.23;100.00;97005.13;1018853;29;20532;-75
2023/10/04 01:33:24;;;;;;;0.00;0.00;;;;;;;10.15;100.00;96988.72;1019522;29;20279;-75
2023/10/04 01:33:54;;;;;;;0.13;0.10;;;;;;;10.17;100.00;96999.00;1018853;29;20264;-75
2023/10/04 01:34:25;;;;;;;0.32;0.32;;;;;;;10.16;100.00;96994.78;1016651;29;20028;-76
2023/10/04 01:34:56;;;;;;;0.00;0.00;;;;;;;10.20;100.00;97000.38;1018299;29;20023;-76
2023/10/04 01:35:27;;;;;;;1.00;0.45;;;;;;;10.17;100.00;96992.94;1015137;29;20016;-76
2023/10/04 01:35:57;;;;;;;0.10;0.10;;;;;;;10.21;100.00;97000.13;1015081;29;20710;-75
2023/10/04 01:36:28;;;;;;;0.00;0.00;;;;;;;10.20;100.00;96998.53;1019534;28;20026;-75
2023/10/04 01:36:59;;;;;;;0.45;0.45;;;;;;;10.12;100.00;96997.03;1019001;29;20051;-76
2023/10/04 01:37:31;;;;;;;0.15;0.15;;;;;;;10.18;100.00;97005.03;1022970;28;20020;-76
2023/10/04 01:38:04;;;;;;;0.17;0.17;;;;;;;10.18;100.00;96999.78;1019044;29;20114;-76
2023/10/04 01:38:35;;;;;;;0.00;0.00;;;;;;;10.18;100.00;97005.03;1020255;28;20267;-75
2023/10/04 01:39:07;;;;;;;0.00;0.00;;;;;;;10.12;100.00;96996.25;1015014;29;20276;-74
2023/10/04 01:39:37;;;;;;;0.65;0.50;;;;;;;10.10;100.00;96993.84;1018986;29;20023;-76
2023/10/04 01:40:12;;;;;;;0.55;0.55;;;;;;;10.08;100.00;97001.16;1022903;29;20711;-76
2023/10/04 01:40:46;;;;;;;2.47;1.25;;;;;;;10.10;100.00;97001.72;1023749;28;20019;-76
2023/10/04 01:41:16;;;;;;;0.00;0.00;;;;;;;10.09;100.00;97000.13;1021620;29;20271;-76
2023/10/04 01:41:47;;;;;;;2.50;0.98;;;;;;;10.05;100.00;96992.94;1021679;28;20282;-77
2023/10/04 01:42:18;;;;;;;2.92;0.98;;;;;;;10.15;100.00;97006.28;1025119;28;20023;-76
2023/10/04 01:42:48;;;;;;;0.30;0.30;;;;;;;10.10;100.00;97001.72;1027762;28;20584;-76
2023/10/04 01:43:19;;;;;;;0.17;0.17;;;;;;;10.08;100.00;97003.75;1026861;28;20026;-75
2023/10/04 01:43:50;;;;;;;1.00;0.22;;;;;;;10.11;100.00;97008.56;1022887;28;20601;-76
2023/10/04 01:44:21;;;;;;;0.10;0.10;;;;;;;10.08;100.00;97011.63;1022549;28;20206;-75
2023/10/04 01:44:54;;;;;;;0.30;0.13;;;;;;;10.08;100.00;97006.38;1022460;29;20847;-77
2023/10/04 01:45:25;;;;;;;0.28;0.28;;;;;;;10.07;100.00;97004.00;1027193;28;20023;-75
2023/10/04 01:45:59;;;;;;;0.20;0.20;;;;;;;9.99;100.00;97001.72;1022503;29;20286;-75
2023/10/04 01:46:29;;;;;;;1.08;0.75;;;;;;;10.00;100.00;96998.88;1014673;29;20548;-75
2023/10/04 01:47:02;;;;;;;0.32;0.32;;;;;;;9.99;100.00;97005.13;1014854;29;20271;-75
2023/10/04 01:47:32;;;;;;;0.63;0.63;;;;;;;10.06;100.00;97007.63;1015181;29;20039;-75
2023/10/04 01:48:04;;;;;;;0.00;0.00;;;;;;;10.01;100.00;97010.94;1014855;29;20313;-76
2023/10/04 01:48:35;;;;;;;0.20;0.20;;;;;;;10.01;100.00;97005.72;1016210;29;20028;-74
2023/10/04 01:49:07;;;;;;;0.70;0.30;;;;;;;10.04;100.00;97002.63;1015567;29;20276;-75
2023/10/04 01:49:37;;;;;;;0.10;0.10;;;;;;;10.02;100.00;97004.66;1019775;28;20031;-77
2023/10/04 01:50:09;;;;;;;0.52;0.38;;;;;;;9.96;100.00;97002.97;1027086;28;20254;-74
2023/10/04 01:50:40;;;;;;;0.10;0.08;;;;;;;9.99;100.00;97001.72;1019323;29;20032;-76
2023/10/04 01:51:12;;;;;;;0.30;0.30;;;;;;;9.99;100.00;97013.00;1022893;28;20275;-75
2023/10/04 01:51:43;;;;;;;0.10;0.10;;;;;;;9.97;100.00;97009.81;1022893;29;20035;-75
2023/10/04 01:52:13;;;;;;;0.00;0.00;;;;;;;9.90;100.00;97003.88;1019583;28;20274;-74
2023/10/04 01:52:47;;;;;;;2.20;1.38;;;;;;;9.88;100.00;96995.44;1027008;28;20082;-75
2023/10/04 01:53:22;;;;;;;0.47;0.47;;;;;;;9.88;100.00;97008.53;1022586;29;20026;-75
2023/10/04 01:53:53;;;;;;;0.00;0.00;;;;;;;9.84;100.00;97010.81;1026803;28;20288;-74
2023/10/04 01:54:23;;;;;;;0.10;0.10;;;;;;;9.77;100.00;96998.84;1024010;28;20274;-76
2023/10/04 01:54:54;;;;;;;0.10;0.05;;;;;;;9.76;100.00;96999.84;1019396;29;20020;-75
2023/10/04 01:55:26;;;;;;;0.03;0.03;;;;;;;9.81;100.00;97005.22;1026852;28;20031;-74
2023/10/04 01:55:56;;;;;;;0.22;0.22;;;;;;;9.74;100.00;96994.06;1026846;28;20034;-75
2023/10/04 01:56:27;;;;;;;0.00;0.00;;;;;;;9.81;100.00;97010.47;1028576;28;20266;-76
2023/10/04 01:56:57;;;;;;;0.20;0.20;;;;;;;9.79;100.00;97005.47;1030844;28;20061;-76
2023/10/04 01:57:28;;;;;;;0.00;0.00;;;;;;;9.82;100.00;97006.81;1026565;28;20038;-76
2023/10/04 01:57:58;;;;;;;0.70;0.70;;;;;;;9.76;100.00;96999.84;1026591;28;20085;-75
2023/10/04 01:58:29;;;;;;;1.10;0.40;;;;;;;9.79;100.00;97005.47;1015003;29;20064;-76
2023/10/04 01:58:59;;;;;;;0.75;0.45;;;;;;;9.78;100.00;97014.34;1022760;29;20552;-76
2023/10/04 01:59:31;;;;;;;0.10;0.10;;;;;;;9.79;100.00;97004.66;1030579;28;20033;-75
2023/10/04 02:00:01;;;;;;;0.00;0.00;;;;;;;9.75;100.00;97006.13;1026943;28;20463;-75
2023/10/04 02:00:33;;;;;;;0.32;0.32;;;;;;;9.68;100.00;96995.75;1034837;28;20253;-77
2023/10/04 02:01:05;;;;;;;0.47;0.20;;;;;;;9.71;100.00;97003.16;1030814;28;20022;-76
2023/10/04 02:01:36;;;;;;;0.55;0.52;;;;;;;9.71;100.00;97005.00;1020677;28;20274;-76
2023/10/04 02:02:09;;;;;;;0.25;0.25;;;;;;;9.71;100.00;96999.75;1018812;29;20324;-75
2023/10/04 02:02:39;;;;;;;0.38;0.38;;;;;;;9.68;100.00;97004.41;1022861;29;20042;-75
2023/10/04 02:03:10;;;;;;;0.22;0.22;;;;;;;9.67;100.00;96999.41;1025707;28;20340;-75
2023/10/04 02:03:44;;;;;;;0.22;0.22;;;;;;;9.66;100.00;96997.81;1027235;28;20034;-75
2023/10/04 02:04:15;;;;;;;0.00;0.00;;;;;;;9.64;100.00;96984.91;1030058;28;20053;-75
2023/10/04 02:04:51;;;;;;;0.00;0.00;;;;;;;9.73;100.00;96997.72;1029929;28;20722;-75
2023/10/04 02:05:37;;;;;;;0.13;0.10;;;;;;;9.75;100.00;96995.66;1026955;28;20503;-76
2023/10/04 02:06:08;;;;;;;0.00;0.00;;;;;;;9.68;100.00;96985.25;1018743;29;20264;-75
2023/10/04 02:06:39;;;;;;;0.22;0.22;;;;;;;9.74;100.00;96992.22;1021569;29;20266;-76
2023/10/04 02:07:09;;;;;;;0.10;0.10;;;;;;;9.76;100.00;97002.47;1018813;29;20275;-76
2023/10/04 02:07:40;;;;;;;0.35;0.22;;;;;;;9.75;100.00;96998.25;1018861;29;20038;-78
2023/10/04 02:08:11;;;;;;;0.00;0.00;;;;;;;9.70;100.00;96992.91;1022582;29;20031;-75
2023/10/04 02:08:44;;;;;;;0.75;0.75;;;;;;;9.72;100.00;96996.09;1023305;28;20326;-75
2023/10/04 02:09:16;;;;;;;0.00;0.00;;;;;;;9.66;100.00;96987.31;1030785;28;20269;-76
2023/10/04 02:09:47;;;;;;;0.30;0.30;;;;;;;9.73;100.00;96997.72;1026815;28;20323;-75
2023/10/04 02:10:18;;;;;;;0.93;0.93;;;;;;;9.72;100.00;96996.09;1026498;28;20971;-76
2023/10/04 02:10:50;;;;;;;0.15;0.15;;;;;;;9.72;100.00;96990.84;1026854;28;20617;-75
2023/10/04 02:11:22;;;;;;;0.47;0.25;;;;;;;9.74;100.00;96994.84;1014762;29;20541;-76
2023/10/04 02:11:52;;;;;;;0.00;0.00;;;;;;;9.73;100.00;97000.34;1014987;29;20359;-76
2023/10/04 02:12:23;;;;;;;0.13;0.13;;;;;;;9.68;100.00;96993.91;1015326;29;20607;-75
2023/10/04 02:12:55;;;;;;;0.60;0.45;;;;;;;9.71;100.00;96997.13;1019584;28;20072;-74
2023/10/04 02:13:27;;;;;;;0.10;0.10;;;;;;;9.68;100.00;97001.78;1022906;28;20029;-74
2023/10/04 02:13:57;;;;;;;0.10;0.10;;;;;;;9.67;100.00;96991.53;1023168;28;20802;-75
2023/10/04 02:14:33;;;;;;;0.03;0.03;;;;;;;9.66;100.00;97000.44;1019507;28;20262;-75
2023/10/04 02:15:06;;;;;;;0.30;0.30;;;;;;;9.64;100.00;97002.47;1020904;29;20031;-75
2023/10/04 02:15:38;;;;;;;0.15;0.15;;;;;;;9.60;100.00;96993.47;1019959;29;20268;-75
2023/10/04 02:16:16;;;;;;;0.05;0.05;;;;;;;9.51;100.00;96981.69;1021482;28;20704;-75
2023/10/04 02:16:46;;;;;;;0.03;0.03;;;;;;;9.64;100.00;96995.41;1028171;28;20314;-75
2023/10/04 02:17:17;;;;;;;0.50;0.20;;;;;;;9.66;100.00;96997.81;1022854;28;20274;-77
2023/10/04 02:17:48;;;;;;;0.35;0.35;;;;;;;9.63;100.00;96991.19;1020139;29;20027;-76
2023/10/04 02:18:22;;;;;;;0.88;0.75;;;;;;;9.68;100.00;96998.38;1018677;29;20023;-75
2023/10/04 02:18:52;;;;;;;0.10;0.10;;;;;;;9.66;100.00;97003.84;1022842;29;20265;-76
2023/10/04 02:19:24;;;;;;;1.38;0.40;;;;;;;9.61;100.00;96989.81;1025553;28;20301;-74
2023/10/04 02:19:54;;;;;;;4.40;0.82;;;;;;;9.66;100.00;96995.97;1026614;28;20050;-75
2023/10/04 02:20:28;;;;;;;0.30;0.30;;;;;;;9.67;100.00;97005.44;1026753;28;20666;-74
2023/10/04 02:20:59;;;;;;;4.13;0.20;;;;;;;9.66;100.00;97003.84;1026579;28;20019;-75
2023/10/04 02:21:33;;;;;;;0.70;0.30;;;;;;;9.58;100.00;96991.06;1026605;28;20269;-77
2023/10/04 02:22:15;;;;;;;0.28;0.28;;;;;;;9.61;100.00;97001.09;1027580;28;21178;-74
2023/10/04 02:22:45;;;;;;;0.25;0.25;;;;;;;9.64;100.00;97005.09;1030214;28;20312;-74
2023/10/04 02:23:16;;;;;;;1.23;1.15;;;;;;;9.60;100.00;97001.31;1030032;28;20332;-75
2023/10/04 02:23:47;;;;;;;0.10;0.10;;;;;;;9.60;100.00;97003.94;1030992;28;20064;-75
2023/10/04 02:24:17;;;;;;;0.95;0.82;;;;;;;9.62;100.00;97002.72;1026997;28;20352;-75
2023/10/04 02:24:48;;;;;;;0.63;0.55;;;;;;;9.54;100.00;96989.91;1022482;28;20019;-75
2023/10/04 02:25:19;;;;;;;0.17;0.17;;;;;;;9.54;100.00;96992.53;1020273;28;20524;-76
2023/10/04 02:25:50;;;;;;;0.80;0.63;;;;;;;9.64;100.00;97005.88;1023186;29;20019;-75
2023/10/04 02:26:23;;;;;;;0.20;0.20;;;;;;;9.57;100.00;96988.66;1022859;29;20267;-76
2023/10/04 02:26:54;;;;;;;0.38;0.38;;;;;;;9.64;100.00;97010.31;1023128;29;20404;-75
2023/10/04 02:27:27;;;;;;;0.52;0.43;;;;;;;9.57;100.00;97004.41;1019116;29;20252;-74
2023/10/04 02:28:03;;;;;;;2.50;1.70;;;;;;;9.59;100.00;97007.56;1020002;29;20272;-75
2023/10/04 02:28:34;;;;;;;0.08;0.08;;;;;;;9.58;100.00;97012.00;1016932;29;20263;-74